createdAt,value
2022-09-01T00:00:57.598Z,99.90
2022-09-01T00:03:24.509Z,99.90
2022-09-01T00:05:55.210Z,99.90
2022-09-01T00:08:24.228Z,99.90
2022-09-01T00:10:51.147Z,99.90
2022-09-01T00:13:18.526Z,99.90
2022-09-01T00:15:45.501Z,99.90
2022-09-01T00:18:13.597Z,99.90
2022-09-01T00:20:40.492Z,99.90
2022-09-01T00:23:07.401Z,99.90
2022-09-01T00:25:35.706Z,99.90
2022-09-01T00:28:04.882Z,99.90
2022-09-01T00:30:32.025Z,99.90
2022-09-01T00:32:59.052Z,99.90
2022-09-01T00:35:26.196Z,99.90
2022-09-01T00:37:53.209Z,99.90
2022-09-01T00:40:20.366Z,99.90
2022-09-01T00:42:49.273Z,99.90
2022-09-01T00:45:16.295Z,99.90
2022-09-01T00:47:43.446Z,99.90
2022-09-01T00:50:12.571Z,99.90
2022-09-01T00:52:43.007Z,99.90
2022-09-01T00:55:14.659Z,99.90
2022-09-01T00:57:42.273Z,99.90
2022-09-01T01:00:13.831Z,99.90
2022-09-01T01:02:41.740Z,99.90
2022-09-01T01:05:09.507Z,99.90
2022-09-01T01:07:43.336Z,99.90
2022-09-01T01:10:17.751Z,99.90
2022-09-01T01:12:45.271Z,99.90
2022-09-01T01:15:14.708Z,99.90
2022-09-01T01:17:41.704Z,99.90
2022-09-01T01:20:29.533Z,99.90
2022-09-01T01:23:05.933Z,99.90
2022-09-01T01:25:40.933Z,99.90
2022-09-01T01:28:13.490Z,99.90
2022-09-01T01:30:44.045Z,99.90
2022-09-01T01:33:11.755Z,99.90
2022-09-01T01:35:40.012Z,99.90
2022-09-01T01:38:07.936Z,99.90
2022-09-01T01:40:35.826Z,99.90
2022-09-01T01:43:05.399Z,99.90
2022-09-01T01:45:32.780Z,99.90
2022-09-01T01:48:01.172Z,99.90
2022-09-01T01:50:33.444Z,99.90
2022-09-01T01:53:02.933Z,99.90
2022-09-01T01:55:39.215Z,99.90
2022-09-01T01:58:09.854Z,99.90
2022-09-01T02:00:36.840Z,99.90
2022-09-01T02:03:05.261Z,99.90
2022-09-01T02:05:35.634Z,99.90
2022-09-01T02:08:06.074Z,99.90
2022-09-01T02:10:34.773Z,99.90
2022-09-01T02:13:05.879Z,99.90
2022-09-01T02:15:42.674Z,99.90
2022-09-01T02:18:10.035Z,99.90
2022-09-01T02:20:37.084Z,99.90
2022-09-01T02:23:10.606Z,99.90
2022-09-01T02:26:05.162Z,99.90
2022-09-01T02:28:34.931Z,99.90
2022-09-01T02:31:05.272Z,99.90
2022-09-01T02:33:32.885Z,99.90
2022-09-01T02:36:02.109Z,99.90
2022-09-01T02:38:29.825Z,99.90
2022-09-01T02:40:59.171Z,99.90
2022-09-01T02:43:28.184Z,99.90
2022-09-01T02:45:59.675Z,99.90
2022-09-01T02:48:32.917Z,99.90
2022-09-01T02:51:02.007Z,99.90
2022-09-01T02:53:29.266Z,99.90
2022-09-01T02:55:59.465Z,99.90
2022-09-01T02:58:27.929Z,99.90
2022-09-01T03:00:56.980Z,99.90
2022-09-01T03:03:24.743Z,99.90
2022-09-01T03:05:57.190Z,99.90
2022-09-01T03:08:25.167Z,99.90
2022-09-01T03:10:53.962Z,99.90
2022-09-01T03:13:23.955Z,99.90
2022-09-01T03:15:51.452Z,99.90
2022-09-01T03:18:19.274Z,99.90
2022-09-01T03:20:47.334Z,99.90
2022-09-01T03:23:19.356Z,99.90
2022-09-01T03:25:47.831Z,99.90
2022-09-01T03:28:15.610Z,99.90
2022-09-01T03:30:46.203Z,99.90
2022-09-01T03:33:13.185Z,99.90
2022-09-01T03:35:40.510Z,99.90
2022-09-01T03:38:07.451Z,99.90
2022-09-01T03:40:36.876Z,99.90
2022-09-01T03:43:06.504Z,99.90
2022-09-01T03:45:38.359Z,99.90
2022-09-01T03:48:09.006Z,99.90
2022-09-01T03:50:45.001Z,99.90
2022-09-01T03:53:14.317Z,99.90
2022-09-01T03:55:45.210Z,99.90
2022-09-01T03:58:14.721Z,99.90
2022-09-01T04:00:45.478Z,99.90
2022-09-01T04:03:28.602Z,99.90
2022-09-01T04:05:56.440Z,99.90
2022-09-01T04:08:27.513Z,99.90
2022-09-01T04:11:05.080Z,99.90
2022-09-01T04:13:36.353Z,99.90
2022-09-01T04:16:10.472Z,99.90
2022-09-01T04:18:40.040Z,99.90
2022-09-01T04:21:08.066Z,99.90
2022-09-01T04:23:37.141Z,99.90
2022-09-01T04:26:15.584Z,99.90
2022-09-01T04:28:45.978Z,99.90
2022-09-01T04:31:18.713Z,99.90
2022-09-01T04:33:52.070Z,99.90
2022-09-01T04:36:23.531Z,99.90
2022-09-01T04:38:55.169Z,99.90
2022-09-01T04:41:27.606Z,99.90
2022-09-01T04:43:57.016Z,99.90
2022-09-01T04:46:28.450Z,99.90
2022-09-01T04:48:57.545Z,99.90
2022-09-01T04:51:28.004Z,99.90
2022-09-01T04:53:57.360Z,99.90
2022-09-01T04:56:26.843Z,99.90
2022-09-01T04:59:13.229Z,99.90
2022-09-01T05:01:45.317Z,99.90
2022-09-01T05:04:17.914Z,99.90
2022-09-01T05:06:49.237Z,99.90
2022-09-01T05:09:19.110Z,99.90
2022-09-01T05:12:15.701Z,99.90
2022-09-01T05:14:48.541Z,99.90
2022-09-01T05:17:19.192Z,99.90
2022-09-01T05:19:50.535Z,99.90
2022-09-01T05:22:22.987Z,99.90
2022-09-01T05:24:55.579Z,99.90
2022-09-01T05:27:26.776Z,99.90
2022-09-01T05:29:54.465Z,99.90
2022-09-01T05:32:25.899Z,99.90
2022-09-01T05:34:53.693Z,99.90
2022-09-01T05:37:21.656Z,99.90
2022-09-01T05:39:50.346Z,99.90
2022-09-01T05:42:17.645Z,99.90
2022-09-01T05:44:47.973Z,99.90
2022-09-01T05:47:21.184Z,99.90
2022-09-01T05:49:50.947Z,99.90
2022-09-01T05:52:20.512Z,99.90
2022-09-01T05:54:48.074Z,99.90
2022-09-01T05:57:33.961Z,99.90
2022-09-01T06:00:10.927Z,99.90
2022-09-01T06:02:40.161Z,99.90
2022-09-01T06:05:08.610Z,99.90
2022-09-01T06:07:39.657Z,99.90
2022-09-01T06:10:08.391Z,99.90
2022-09-01T06:12:35.311Z,99.90
2022-09-01T06:15:04.215Z,99.90
2022-09-01T06:17:34.671Z,99.90
2022-09-01T06:20:10.674Z,99.90
2022-09-01T06:22:40.971Z,99.90
2022-09-01T06:25:10.273Z,99.90
2022-09-01T06:27:41.194Z,99.90
2022-09-01T06:30:15.275Z,99.90
2022-09-01T06:32:49.771Z,99.90
2022-09-01T06:35:18.228Z,99.90
2022-09-01T06:37:46.024Z,99.90
2022-09-01T06:40:25.406Z,99.90
2022-09-01T06:42:53.477Z,99.90
2022-09-01T06:45:24.122Z,99.90
2022-09-01T06:47:52.601Z,99.90
2022-09-01T06:53:42.876Z,99.90
2022-09-01T06:56:09.260Z,99.90
2022-09-01T06:58:38.041Z,99.90
2022-09-01T07:01:15.584Z,99.90
2022-09-01T07:03:43.927Z,99.90
2022-09-01T07:12:26.015Z,99.90
2022-09-01T07:17:49.970Z,99.90
2022-09-01T07:20:24.760Z,99.90
2022-09-01T07:23:09.958Z,99.90
2022-09-01T07:26:01.229Z,99.90
2022-09-01T07:28:40.555Z,99.90
2022-09-01T07:42:59.127Z,99.90
2022-09-01T07:42:59.491Z,99.90
2022-09-01T07:51:37.169Z,99.90
2022-09-01T07:54:06.414Z,99.90
2022-09-01T07:56:39.487Z,99.90
2022-09-01T07:59:15.005Z,99.90
2022-09-01T08:01:50.730Z,99.90
2022-09-01T08:04:22.815Z,99.90
2022-09-01T08:06:51.402Z,99.90
2022-09-01T08:09:25.330Z,99.90
2022-09-01T08:12:02.711Z,99.90
2022-09-01T08:14:34.352Z,99.90
2022-09-01T08:17:16.810Z,99.90
2022-09-01T08:19:46.937Z,99.90
2022-09-01T08:22:24.325Z,99.90
2022-09-01T08:24:59.283Z,99.90
2022-09-01T08:27:26.440Z,99.90
2022-09-01T08:29:53.373Z,99.90
2022-09-01T08:32:21.243Z,99.90
2022-09-01T08:34:48.247Z,99.90
2022-09-01T08:37:15.237Z,99.90
2022-09-01T08:39:43.681Z,99.90
2022-09-01T08:42:16.388Z,99.90
2022-09-01T08:44:54.482Z,99.90
2022-09-01T08:47:35.453Z,99.90
2022-09-01T08:50:09.684Z,99.90
2022-09-01T08:53:10.515Z,99.90
2022-09-01T08:55:43.870Z,99.90
2022-09-01T08:58:15.510Z,99.90
2022-09-01T09:01:08.794Z,99.90
2022-09-01T09:03:42.887Z,99.90
2022-09-01T09:06:17.255Z,99.90
2022-09-01T09:08:54.213Z,99.90
2022-09-01T09:11:56.369Z,99.90
2022-09-01T09:14:36.945Z,99.90
2022-09-01T09:17:04.398Z,99.90
2022-09-01T09:19:34.702Z,99.90
2022-09-01T09:22:05.830Z,99.90
2022-09-01T09:24:50.218Z,99.90
2022-09-01T09:27:21.630Z,99.90
2022-09-01T09:29:50.959Z,99.90
2022-09-01T09:32:22.847Z,99.90
2022-09-01T09:34:51.687Z,99.90
2022-09-01T09:37:24.791Z,99.90
2022-09-01T09:40:11.491Z,99.90
2022-09-01T09:42:42.424Z,99.90
2022-09-01T09:45:23.593Z,99.90
2022-09-01T09:47:51.083Z,99.90
2022-09-01T09:50:23.715Z,99.90
2022-09-01T09:52:52.573Z,99.90
2022-09-01T09:55:26.051Z,99.90
2022-09-01T09:57:58.079Z,99.90
2022-09-01T10:00:27.748Z,99.90
2022-09-01T10:02:58.337Z,99.90
2022-09-01T10:05:41.726Z,99.90
2022-09-01T10:08:12.367Z,99.90
2022-09-01T10:10:42.853Z,99.90
2022-09-01T10:13:15.586Z,99.90
2022-09-01T10:15:49.214Z,99.90
2022-09-01T10:18:28.489Z,99.90
2022-09-01T10:21:00.153Z,99.90
2022-09-01T10:23:31.340Z,99.90
2022-09-01T10:26:05.895Z,99.90
2022-09-01T10:28:50.734Z,99.90
2022-09-01T10:31:18.757Z,99.90
2022-09-01T10:33:46.262Z,99.80
2022-09-01T10:36:15.320Z,99.90
2022-09-01T10:38:52.640Z,99.40
2022-09-01T10:42:00.575Z,99.60
2022-09-01T10:44:33.798Z,98.90
2022-09-01T10:47:08.794Z,99.60
2022-09-01T10:49:59.545Z,99.20
2022-09-01T10:53:00.660Z,99.70
2022-09-01T10:55:34.779Z,99.60
2022-09-01T11:01:11.052Z,98.60
2022-09-01T11:04:00.732Z,98.30
2022-09-01T11:07:11.531Z,98.20
2022-09-01T11:09:35.978Z,98.30
2022-09-01T11:12:40.156Z,97.30
2022-09-01T11:15:35.538Z,97.90
2022-09-01T11:18:09.904Z,97.50
2022-09-01T11:20:39.534Z,97.30
2022-09-01T11:23:12.136Z,96.50
2022-09-01T11:25:43.709Z,96.00
2022-09-01T11:28:40.313Z,95.90
2022-09-01T11:31:25.915Z,95.10
2022-09-01T11:34:03.752Z,94.70
2022-09-01T11:36:35.119Z,94.50
2022-09-01T11:39:09.131Z,94.10
2022-09-01T11:41:55.736Z,93.70
2022-09-01T11:44:27.335Z,92.80
2022-09-01T11:47:01.927Z,92.80
2022-09-01T11:49:32.151Z,91.50
2022-09-01T11:52:00.557Z,91.10
2022-09-01T11:54:29.829Z,90.70
2022-09-01T11:56:56.778Z,91.20
2022-09-01T11:59:36.919Z,90.90
2022-09-01T12:02:05.260Z,90.70
2022-09-01T12:04:36.728Z,90.40
2022-09-01T12:07:08.114Z,90.20
2022-09-01T12:09:42.256Z,90.30
2022-09-01T12:12:28.159Z,90.90
2022-09-01T12:15:07.580Z,91.20
2022-09-01T12:17:35.111Z,90.90
2022-09-01T12:20:28.124Z,90.90
2022-09-01T12:22:56.526Z,90.90
2022-09-01T12:25:26.076Z,90.60
2022-09-01T12:27:54.114Z,90.90
2022-09-01T12:30:23.427Z,91.40
2022-09-01T12:32:50.745Z,91.40
2022-09-01T12:35:22.128Z,91.60
2022-09-01T12:37:50.268Z,91.70
2022-09-01T12:40:26.501Z,91.80
2022-09-01T12:42:54.127Z,92.10
2022-09-01T12:45:40.713Z,91.80
2022-09-01T12:48:23.886Z,92.00
2022-09-01T12:50:51.567Z,92.70
2022-09-01T12:53:22.077Z,92.60
2022-09-01T12:56:02.828Z,92.70
2022-09-01T12:58:31.826Z,92.80
2022-09-01T13:01:05.077Z,92.70
2022-09-01T13:03:34.675Z,93.00
2022-09-01T13:06:03.550Z,93.40
2022-09-01T13:08:33.126Z,93.40
2022-09-01T13:11:04.424Z,92.80
2022-09-01T13:13:31.565Z,92.50
2022-09-01T13:16:08.866Z,91.70
2022-09-01T13:19:10.413Z,90.90
2022-09-01T13:21:22.950Z,90.80
2022-09-01T13:23:50.726Z,90.80
2022-09-01T13:26:18.029Z,90.40
2022-09-01T13:28:46.033Z,88.80
2022-09-01T13:31:30.000Z,89.50
2022-09-01T13:34:22.933Z,89.10
2022-09-01T13:36:49.615Z,88.50
2022-09-01T13:39:19.064Z,88.10
2022-09-01T13:41:47.592Z,88.30
2022-09-01T13:44:14.619Z,88.30
2022-09-01T13:50:06.332Z,87.60
2022-09-01T13:52:16.919Z,87.40
2022-09-01T13:54:44.533Z,88.20
2022-09-01T13:57:11.714Z,88.30
2022-09-01T13:59:38.818Z,88.90
2022-09-01T14:02:07.490Z,89.20
2022-09-01T14:04:34.849Z,89.60
2022-09-01T14:07:02.522Z,90.00
2022-09-01T14:09:29.707Z,89.10
2022-09-01T14:11:57.072Z,89.90
2022-09-01T14:14:24.297Z,90.00
2022-09-01T14:16:51.529Z,90.20
2022-09-01T14:19:19.860Z,90.30
2022-09-01T14:21:47.315Z,90.20
2022-09-01T14:24:14.265Z,89.20
2022-09-01T14:26:41.402Z,90.20
2022-09-01T14:29:08.470Z,88.50
2022-09-01T14:31:37.605Z,87.80
2022-09-01T14:34:05.238Z,89.00
2022-09-01T14:36:33.584Z,89.30
2022-09-01T14:39:00.622Z,88.60
2022-09-01T14:41:27.551Z,89.30
2022-09-01T14:43:57.595Z,87.00
2022-09-01T14:46:25.903Z,87.80
2022-09-01T14:48:53.266Z,87.10
2022-09-01T14:51:24.323Z,88.60
2022-09-01T14:53:53.790Z,86.50
2022-09-01T14:56:21.659Z,87.20
2022-09-01T14:58:49.828Z,87.90
2022-09-01T15:01:33.873Z,88.10
2022-09-01T15:04:02.221Z,88.50
2022-09-01T15:06:29.161Z,89.20
2022-09-01T15:08:57.388Z,89.40
2022-09-01T15:11:24.293Z,89.70
2022-09-01T15:13:52.615Z,89.20
2022-09-01T15:16:22.778Z,88.70
2022-09-01T15:18:50.409Z,88.60
2022-09-01T15:21:21.748Z,88.40
2022-09-01T15:23:49.258Z,88.40
2022-09-01T15:26:17.915Z,87.60
2022-09-01T15:28:45.408Z,88.00
2022-09-01T15:31:17.838Z,88.70
2022-09-01T15:33:45.592Z,88.40
2022-09-01T15:36:16.463Z,89.00
2022-09-01T15:38:43.791Z,88.80
2022-09-01T15:41:17.877Z,89.60
2022-09-01T15:43:44.853Z,89.60
2022-09-01T15:46:12.354Z,90.10
2022-09-01T15:48:39.351Z,89.20
2022-09-01T15:51:30.216Z,89.10
2022-09-01T15:54:00.376Z,89.80
2022-09-01T15:56:28.832Z,89.60
2022-09-01T15:59:02.877Z,89.90
2022-09-01T16:01:32.497Z,90.30
2022-09-01T16:03:59.451Z,90.20
2022-09-01T16:06:26.691Z,90.30
2022-09-01T16:08:54.425Z,90.30
2022-09-01T16:11:23.518Z,90.10
2022-09-01T16:13:53.744Z,90.20
2022-09-01T16:16:36.219Z,90.00
2022-09-01T16:19:07.469Z,90.20
2022-09-01T16:21:44.204Z,90.30
2022-09-01T16:24:12.731Z,90.70
2022-09-01T16:26:41.201Z,89.70
2022-09-01T16:29:14.704Z,90.20
2022-09-01T16:31:42.836Z,89.70
2022-09-01T16:34:16.368Z,89.30
2022-09-01T16:36:52.301Z,89.00
2022-09-01T16:39:29.391Z,88.80
2022-09-01T16:42:03.860Z,88.80
2022-09-01T16:44:41.950Z,89.40
2022-09-01T16:47:25.577Z,89.90
2022-09-01T16:50:05.359Z,90.00
2022-09-01T16:52:42.483Z,90.30
2022-09-01T16:55:22.510Z,90.40
2022-09-01T16:57:59.625Z,90.60
2022-09-01T17:00:37.083Z,90.70
2022-09-01T17:03:16.987Z,90.70
2022-09-01T17:05:54.240Z,90.90
2022-09-01T17:08:23.413Z,90.90
2022-09-01T17:10:55.106Z,90.80
2022-09-01T17:13:28.949Z,90.90
2022-09-01T17:16:07.889Z,91.00
2022-09-01T17:18:39.555Z,91.10
2022-09-01T17:21:14.264Z,90.90
2022-09-01T17:23:50.176Z,91.30
2022-09-01T17:26:21.947Z,91.50
2022-09-01T17:28:55.155Z,91.50
2022-09-01T17:31:49.228Z,91.70
2022-09-01T17:34:30.098Z,91.90
2022-09-01T17:37:10.459Z,92.00
2022-09-01T17:39:49.443Z,92.20
2022-09-01T17:42:24.091Z,92.40
2022-09-01T17:44:56.308Z,92.40
2022-09-01T17:47:37.364Z,92.50
2022-09-01T17:50:15.132Z,92.80
2022-09-01T17:52:52.929Z,93.10
2022-09-01T17:55:36.615Z,92.90
2022-09-01T17:58:10.146Z,93.40
2022-09-01T18:00:44.490Z,92.90
2022-09-01T18:03:34.361Z,93.20
2022-09-01T18:06:06.076Z,92.60
2022-09-01T18:08:39.038Z,92.70
2022-09-01T18:11:11.510Z,93.20
2022-09-01T18:13:53.793Z,93.30
2022-09-01T18:16:25.336Z,93.30
2022-09-01T18:18:53.982Z,93.40
2022-09-01T18:21:24.531Z,93.50
2022-09-01T18:23:55.367Z,93.80
2022-09-01T18:26:29.573Z,94.10
2022-09-01T18:28:57.290Z,93.70
2022-09-01T18:31:53.151Z,94.00
2022-09-01T18:34:27.522Z,94.10
2022-09-01T18:37:05.034Z,94.30
2022-09-01T18:39:43.373Z,94.50
2022-09-01T18:42:16.227Z,94.70
2022-09-01T18:44:51.202Z,94.60
2022-09-01T18:47:28.747Z,94.80
2022-09-01T18:50:06.198Z,94.90
2022-09-01T18:52:52.550Z,95.10
2022-09-01T18:55:24.523Z,95.40
2022-09-01T18:57:53.376Z,95.40
2022-09-01T19:00:21.859Z,95.80
2022-09-01T19:03:04.729Z,95.80
2022-09-01T19:05:59.703Z,96.00
2022-09-01T19:08:48.284Z,96.10
2022-09-01T19:11:23.149Z,96.20
2022-09-01T19:13:59.678Z,96.40
2022-09-01T19:16:37.665Z,96.60
2022-09-01T19:19:17.886Z,96.80
2022-09-01T19:21:49.191Z,97.20
2022-09-01T19:24:25.187Z,97.70
2022-09-01T19:26:57.949Z,97.50
2022-09-01T19:29:29.457Z,97.50
2022-09-01T19:32:02.234Z,97.90
2022-09-01T19:34:36.169Z,97.60
2022-09-01T19:37:05.060Z,98.00
2022-09-01T19:39:35.117Z,98.10
2022-09-01T19:42:08.279Z,98.00
2022-09-01T19:44:44.561Z,98.30
2022-09-01T19:47:16.025Z,98.70
2022-09-01T19:49:49.524Z,99.00
2022-09-01T19:52:27.109Z,99.10
2022-09-01T19:55:00.276Z,99.30
2022-09-01T19:57:33.224Z,99.70
2022-09-01T20:00:08.201Z,99.70
2022-09-01T20:02:37.734Z,99.90
2022-09-01T20:05:11.683Z,99.80
2022-09-01T20:07:45.992Z,99.90
2022-09-01T20:10:21.720Z,99.90
2022-09-01T20:12:57.857Z,99.90
2022-09-01T20:15:34.418Z,99.90
2022-09-01T20:18:05.396Z,99.90
2022-09-01T20:20:39.018Z,99.90
2022-09-01T20:23:14.122Z,99.90
2022-09-01T20:25:45.413Z,99.90
2022-09-01T20:28:19.312Z,99.90
2022-09-01T20:30:53.092Z,99.90
2022-09-01T20:33:25.644Z,99.90
2022-09-01T20:35:56.233Z,99.90
2022-09-01T20:38:50.828Z,99.90
2022-09-01T20:41:26.037Z,99.90
2022-09-01T20:43:56.118Z,99.90
2022-09-01T20:46:24.369Z,99.90
2022-09-01T20:48:51.400Z,99.90
2022-09-01T20:51:26.061Z,99.90
2022-09-01T20:54:06.933Z,99.90
2022-09-01T20:56:43.548Z,99.90
2022-09-01T20:59:17.715Z,99.90
2022-09-01T21:02:00.456Z,99.90
2022-09-01T21:04:38.163Z,99.90
2022-09-01T21:07:13.072Z,99.90
2022-09-01T21:09:51.997Z,99.90
2022-09-01T21:12:28.067Z,99.90
2022-09-01T21:15:03.822Z,99.90
2022-09-01T21:17:38.386Z,99.90
2022-09-01T21:20:13.707Z,99.90
2022-09-01T21:22:40.578Z,99.90
2022-09-01T21:25:08.923Z,99.90
2022-09-01T21:27:42.094Z,99.90
2022-09-01T21:30:11.948Z,99.90
2022-09-01T21:32:39.643Z,99.90
2022-09-01T21:35:09.484Z,99.90
2022-09-01T21:37:36.434Z,99.90
2022-09-01T21:40:05.298Z,99.90
2022-09-01T21:42:38.437Z,99.90
2022-09-01T21:45:07.507Z,99.90
2022-09-01T21:47:34.651Z,99.90
2022-09-01T21:50:01.696Z,99.90
2022-09-01T21:52:28.613Z,99.90
2022-09-01T21:54:55.527Z,99.90
2022-09-01T21:57:23.097Z,99.90
2022-09-01T21:59:51.529Z,99.90
2022-09-01T22:02:20.491Z,99.90
2022-09-01T22:04:48.829Z,99.90
2022-09-01T22:07:18.738Z,99.90
2022-09-01T22:09:46.327Z,99.90
2022-09-01T22:12:14.140Z,99.90
2022-09-01T22:14:41.066Z,99.90
2022-09-01T22:17:09.449Z,99.90
2022-09-01T22:19:36.703Z,99.90
2022-09-01T22:22:04.152Z,99.90
2022-09-01T22:24:31.552Z,99.90
2022-09-01T22:26:58.539Z,99.90
2022-09-01T22:29:25.508Z,99.90
2022-09-01T22:31:52.598Z,99.90
2022-09-01T22:34:20.926Z,99.90
2022-09-01T22:36:49.306Z,99.90
2022-09-01T22:39:18.375Z,99.90
2022-09-01T22:41:45.461Z,99.90
2022-09-01T22:44:12.757Z,99.90
2022-09-01T22:46:40.533Z,99.90
2022-09-01T22:49:08.848Z,99.90
2022-09-01T22:51:38.579Z,99.90
2022-09-01T22:54:05.801Z,99.90
2022-09-01T22:56:34.950Z,99.90
2022-09-01T22:59:05.110Z,99.90
2022-09-01T23:01:35.270Z,99.90
2022-09-01T23:04:04.882Z,99.90
2022-09-01T23:06:33.358Z,99.90
2022-09-01T23:09:03.098Z,99.90
2022-09-01T23:11:30.071Z,99.90
2022-09-01T23:13:57.090Z,99.90
2022-09-01T23:16:25.094Z,99.90
2022-09-01T23:18:54.484Z,99.90
2022-09-01T23:21:24.228Z,99.90
2022-09-01T23:23:58.475Z,99.90
2022-09-01T23:26:29.024Z,99.90
2022-09-01T23:28:56.922Z,99.90
2022-09-01T23:31:26.676Z,99.90
2022-09-01T23:33:54.526Z,99.90
2022-09-01T23:36:23.396Z,99.90
2022-09-01T23:38:51.710Z,99.90
2022-09-01T23:41:23.245Z,99.90
2022-09-01T23:43:52.294Z,99.90
2022-09-01T23:46:22.095Z,99.90
2022-09-01T23:48:49.347Z,99.90
2022-09-01T23:51:18.192Z,99.90
2022-09-01T23:53:46.933Z,99.90
2022-09-01T23:56:16.805Z,99.90
2022-09-01T23:58:44.183Z,99.90
